Pine Bluffs, WY (82082)

3:47 AM MDT on July 06, 2015 (GMT -0600)
Pine Bluffs Muni, Pine Bluffs | | Change Station
CLOSE
Current Station
Airport
Location: Pine Bluffs Muni, Pine Bluffs,
Elevation: 5151 ft
Nearby Weather Stations

Elev 5151 ft 41.15 °N, 104.13 °W | Updated 12 minutes ago

Overcast
Overcast
57 °F
Feels Like 57 °F
N
12
Wind Variable Wind from North
Gusts 18 mph

Today
High -- | Low -- °F
--% Chance of Precip.
Yesterday
High -- | Low -- °F
Precip. -- in
5:30 AM 8:31 PM
Waning Gibbous, 77% visible
Pressure 30.16 in
Visibility 10.0 miles
Clouds Overcast 900 ft
Dew Point 55 °F
Humidity 94%
Rainfall 0.00 in
Snow Depth Not available.
UV 0 out of 12
Pollen 5.00 out of 12
Air Quality Not available.
Flu Activity Not available.
METAR K82V 060935Z AUTO 36010G16KT 10SM OVC009 14/13 A3016 RMK AO2

More Conditions Fewer Conditions

Pressure 30.16 in
Visibility 10.0 miles
Clouds Overcast 900 ft
Dew Point 55 °F
Humidity 94%
Rainfall 0.00 in
Snow Depth Not available.
UV 0 out of 12
Pollen 5.00 out of 12
Air Quality Not available.
Flu Activity Not available.
METAR K82V 060935Z AUTO 36010G16KT 10SM OVC009 14/13 A3016 RMK AO2

More Conditions Fewer Conditions

10-Day Weather Forecast

×

Almanac

Astronomy

Jul. 06, 2015 Rise Set
Actual Time
Civil Twilight
Nautical Twilight
Astronomical Twilight
Moon
Length of Visible Light
Length of Day
Tomorrow will be .
, % of the Moon is Illuminated

Today's Extremes

State Highs State Lows

Community

WunderPhotos

Upload Photos

1,835,520 photos uploaded!

WunderBlogs® & News

Nearby

Air Quality

  Air Quality AQ Index Pollutant
Not available.

Snow Depth

Station Depth Elevation

Earthquake Activity

City Distance Mag. Time & Date
Minimum magnitude displayed is 2.5.

Coastal Water Temperatures

Place Temperature

Stations

Nearby Weather Stations

Station Location Temp. Windchill Dew Point Humidity Wind Precip. Elev Updated Type